Details for Qantas Freight at YSSY




Go Back


Latest METAR
Local Time

YSSY 180600Z 27027G42KT 9999 FEW040 SCT060 BKN110 16/03 Q1009 WS RWY25
18/08/2018, 16:27:18

Description
Results
Qantas Freight Logo
Number of Pilots based at YSSY
0 Pilots Based here
Number of Qantas Freight Flights Departed from YSSY
0 Flights Departed
Number of Qantas Freight Flights Arrived at YSSY
0 Flights Arrived
Number of Qantas Freight Schedules Departing from YSSY
8 Schedules
Number of Qantas Freight Schedules Arriving at YSSY
8 Schedules
Number of Qantas Freight Schedules Departing from YSSY availible today
8 Schedules Today
Number of Qantas Freight Schedules Arriving at YSSY availible today
8 Schedules Today
Average Landing Rate at YSSY
-212 fpm
Qantas Freight Average Landing Rate at YSSY
0 fpm
Total Fuel Purchased at YSSY by Qantas Freight
0.00 kgs / 0.00 lbs

Pilots Based at YSSY


Pilot ID
Pilot Name
Pilot Rank
No. of Flights
No. of Flying Hours
There are no pilots assigned to this hub!   Will you be the first?
Content